createdAt,value
2022-10-14T00:01:06.040Z,58.30
2022-10-14T00:03:34.063Z,59.85
2022-10-14T00:06:04.497Z,53.70
2022-10-14T00:08:30.820Z,57.13
2022-10-14T00:10:57.257Z,56.08
2022-10-14T00:13:23.599Z,60.38
2022-10-14T00:15:49.915Z,57.28
2022-10-14T00:18:16.274Z,57.83
2022-10-14T00:20:42.610Z,57.95
2022-10-14T00:23:09.129Z,55.05
2022-10-14T00:25:38.130Z,59.55
2022-10-14T00:28:04.673Z,58.42
2022-10-14T00:30:30.999Z,53.22
2022-10-14T00:32:57.632Z,56.67
2022-10-14T00:35:23.977Z,56.53
2022-10-14T00:37:50.559Z,60.40
2022-10-14T00:40:17.023Z,57.65
2022-10-14T00:42:43.383Z,62.42
2022-10-14T00:45:15.250Z,62.50
2022-10-14T00:47:43.659Z,59.95
2022-10-14T00:50:12.827Z,60.85
2022-10-14T00:52:39.553Z,61.13
2022-10-14T00:55:24.019Z,64.13
2022-10-14T00:57:50.581Z,55.85
2022-10-14T01:00:19.156Z,59.88
2022-10-14T01:02:47.620Z,58.85
2022-10-14T01:05:15.900Z,66.90
2022-10-14T01:07:59.399Z,62.38
2022-10-14T01:10:41.410Z,58.88
2022-10-14T01:13:29.430Z,62.47
2022-10-14T01:16:14.689Z,56.50
2022-10-14T01:19:04.775Z,60.92
2022-10-14T01:21:51.115Z,64.50
2022-10-14T01:24:58.999Z,64.00
2022-10-14T01:28:09.155Z,66.35
2022-10-14T01:30:46.148Z,65.05
2022-10-14T01:33:26.720Z,64.30
2022-10-14T01:36:07.255Z,69.85
2022-10-14T01:38:41.318Z,68.18
2022-10-14T01:41:21.184Z,69.97
2022-10-14T01:43:50.419Z,61.15
2022-10-14T01:46:19.563Z,64.15
2022-10-14T01:48:51.158Z,65.65
2022-10-14T01:51:23.704Z,61.65
2022-10-14T01:53:57.216Z,55.88
2022-10-14T01:56:24.766Z,53.20
2022-10-14T01:58:53.978Z,48.35
2022-10-14T02:01:20.333Z,55.25
2022-10-14T02:03:47.659Z,55.15
2022-10-14T02:06:21.211Z,54.33
2022-10-14T02:09:02.709Z,55.17
2022-10-14T02:11:38.254Z,58.05
2022-10-14T02:14:14.252Z,57.03
2022-10-14T02:16:45.241Z,58.25
2022-10-14T02:19:28.353Z,56.40
2022-10-14T02:22:19.576Z,61.08
2022-10-14T02:24:53.267Z,59.60
2022-10-14T02:27:22.548Z,65.07
2022-10-14T02:29:50.535Z,62.10
2022-10-14T02:32:20.627Z,68.90
2022-10-14T02:34:50.893Z,66.20
2022-10-14T02:37:19.995Z,65.18
2022-10-14T02:39:54.653Z,62.65
2022-10-14T02:42:21.104Z,63.22
2022-10-14T02:44:58.944Z,65.95
2022-10-14T02:47:25.937Z,63.17
2022-10-14T02:49:52.830Z,65.40
2022-10-14T02:52:20.046Z,67.63
2022-10-14T02:54:46.748Z,63.33
2022-10-14T02:57:13.079Z,67.75
2022-10-14T02:59:42.279Z,61.60
2022-10-14T03:02:08.899Z,61.92
2022-10-14T03:04:35.753Z,61.65
2022-10-14T03:07:02.188Z,58.00
2022-10-14T03:09:28.575Z,59.28
2022-10-14T03:11:54.898Z,55.95
2022-10-14T03:14:21.310Z,55.40
2022-10-14T03:16:47.685Z,62.95
2022-10-14T03:19:14.123Z,56.40
2022-10-14T03:21:40.440Z,58.20
2022-10-14T03:24:06.975Z,57.17
2022-10-14T03:26:33.640Z,58.30
2022-10-14T03:29:00.021Z,55.50
2022-10-14T03:31:26.606Z,56.45
2022-10-14T03:33:53.201Z,58.72
2022-10-14T03:36:19.593Z,55.40
2022-10-14T03:38:45.924Z,54.35
2022-10-14T03:41:12.365Z,56.85
2022-10-14T03:43:38.708Z,56.50
2022-10-14T03:46:05.291Z,55.17
2022-10-14T03:48:31.707Z,55.53
2022-10-14T03:50:58.237Z,55.35
2022-10-14T03:53:24.686Z,62.10
2022-10-14T03:55:51.067Z,58.42
2022-10-14T03:58:17.451Z,56.40
2022-10-14T04:00:44.710Z,59.55
2022-10-14T04:03:11.068Z,62.47
2022-10-14T04:05:37.503Z,62.25
2022-10-14T04:08:04.125Z,64.50
2022-10-14T04:10:31.044Z,66.22
2022-10-14T04:12:57.580Z,59.90
2022-10-14T04:15:24.355Z,64.20
2022-10-14T04:17:50.791Z,61.80
2022-10-14T04:20:17.394Z,64.15
2022-10-14T04:22:43.958Z,63.30
2022-10-14T04:25:10.645Z,65.63
2022-10-14T04:27:37.120Z,65.97
2022-10-14T04:30:04.827Z,63.22
2022-10-14T04:32:31.267Z,62.78
2022-10-14T04:34:57.592Z,62.85
2022-10-14T04:37:23.965Z,63.28
2022-10-14T04:39:50.263Z,64.82
2022-10-14T04:42:16.585Z,64.80
2022-10-14T04:44:42.936Z,67.13
2022-10-14T04:47:09.263Z,64.85
2022-10-14T04:49:35.609Z,64.95
2022-10-14T04:52:01.913Z,66.78
2022-10-14T04:54:28.222Z,67.13
2022-10-14T04:56:54.588Z,65.20
2022-10-14T04:59:20.935Z,70.55
2022-10-14T05:01:47.336Z,67.03
2022-10-14T05:04:14.007Z,68.50
2022-10-14T05:06:40.726Z,63.20
2022-10-14T05:09:07.157Z,70.57
2022-10-14T05:11:33.651Z,67.43
2022-10-14T05:14:00.402Z,63.85
2022-10-14T05:16:26.915Z,66.22
2022-10-14T05:18:53.684Z,64.55
2022-10-14T05:21:19.993Z,66.03
2022-10-14T05:23:46.410Z,62.72
2022-10-14T05:26:12.732Z,67.40
2022-10-14T05:28:39.158Z,61.20
2022-10-14T05:31:06.185Z,62.13
2022-10-14T05:33:33.057Z,63.78
2022-10-14T05:35:59.890Z,61.00
2022-10-14T05:41:11.708Z,54.78
2022-10-14T05:43:38.017Z,61.58
2022-10-14T05:46:04.534Z,59.05
2022-10-14T05:48:32.129Z,61.60
2022-10-14T05:51:02.123Z,64.95
2022-10-14T05:53:28.607Z,54.65
2022-10-14T05:56:08.176Z,59.17
2022-10-14T05:58:34.791Z,59.13
2022-10-14T06:01:06.224Z,60.63
2022-10-14T06:03:33.343Z,59.28
2022-10-14T06:06:00.246Z,59.80
2022-10-14T06:08:27.803Z,59.95
2022-10-14T06:10:54.590Z,57.65
2022-10-14T06:13:22.065Z,60.60
2022-10-14T06:15:48.419Z,57.22
2022-10-14T06:18:14.738Z,59.97
2022-10-14T06:20:41.040Z,58.63
2022-10-14T06:23:07.334Z,59.08
2022-10-14T06:25:34.267Z,61.88
2022-10-14T06:28:05.087Z,65.78
2022-10-14T06:30:32.051Z,60.35
2022-10-14T06:32:58.388Z,61.97
2022-10-14T06:35:24.675Z,58.75
2022-10-14T06:37:50.996Z,67.70
2022-10-14T06:40:17.432Z,64.05
2022-10-14T06:42:43.886Z,59.90
2022-10-14T06:45:10.396Z,63.83
2022-10-14T06:47:36.743Z,66.18
2022-10-14T06:50:03.272Z,58.20
2022-10-14T06:52:29.586Z,66.15
2022-10-14T06:54:55.880Z,63.45
2022-10-14T06:57:22.200Z,65.13
2022-10-14T06:59:48.511Z,65.32
2022-10-14T07:02:14.911Z,65.05
2022-10-14T07:04:41.360Z,66.80
2022-10-14T07:07:08.505Z,64.38
2022-10-14T07:09:35.075Z,62.53
2022-10-14T07:12:01.788Z,70.18
2022-10-14T07:14:28.133Z,62.85
2022-10-14T07:16:54.833Z,66.10
2022-10-14T07:19:21.179Z,65.72
2022-10-14T07:21:47.627Z,65.70
2022-10-14T07:24:14.021Z,67.28
2022-10-14T07:26:40.521Z,64.30
2022-10-14T07:29:06.924Z,66.13
2022-10-14T07:31:33.984Z,64.97
2022-10-14T07:34:01.498Z,68.05
2022-10-14T07:36:28.464Z,67.32
2022-10-14T07:38:55.043Z,69.50
2022-10-14T07:41:24.616Z,64.70
2022-10-14T07:43:54.395Z,64.28
2022-10-14T07:46:29.467Z,67.53
2022-10-14T07:48:57.864Z,64.97
2022-10-14T07:51:25.189Z,64.45
2022-10-14T07:53:52.919Z,68.60
2022-10-14T07:56:19.408Z,63.72
2022-10-14T07:58:46.528Z,63.85
2022-10-14T08:01:15.462Z,68.38
2022-10-14T08:03:42.877Z,68.60
2022-10-14T08:06:09.413Z,66.07
2022-10-14T08:08:35.876Z,72.50
2022-10-14T08:11:11.646Z,66.47
2022-10-14T08:13:43.268Z,64.63
2022-10-14T08:18:40.937Z,55.30
2022-10-14T08:21:07.268Z,63.88
2022-10-14T08:23:33.794Z,68.72
2022-10-14T08:26:00.320Z,70.75
2022-10-14T08:28:26.710Z,69.05
2022-10-14T08:30:53.433Z,69.22
2022-10-14T08:33:20.053Z,73.20
2022-10-14T08:35:50.224Z,67.57
2022-10-14T08:38:24.670Z,66.57
2022-10-14T08:41:12.623Z,64.95
2022-10-14T08:44:07.828Z,70.97
2022-10-14T08:46:59.291Z,62.95
2022-10-14T08:49:28.416Z,63.60
2022-10-14T08:52:18.188Z,66.20
2022-10-14T08:54:48.224Z,65.13
2022-10-14T08:57:19.110Z,65.93
2022-10-14T08:59:45.567Z,69.38
2022-10-14T09:02:33.838Z,70.22
2022-10-14T09:05:02.091Z,66.57
2022-10-14T09:07:30.597Z,68.80
2022-10-14T09:10:06.842Z,67.10
2022-10-14T09:12:35.563Z,66.10
2022-10-14T09:15:22.366Z,70.07
2022-10-14T09:17:54.813Z,65.40
2022-10-14T09:20:24.641Z,65.57
2022-10-14T09:22:59.776Z,68.00
2022-10-14T09:25:26.100Z,70.18
2022-10-14T09:27:52.665Z,67.68
2022-10-14T09:30:19.210Z,71.18
2022-10-14T09:32:53.041Z,72.07
2022-10-14T09:35:42.039Z,62.67
2022-10-14T09:38:09.436Z,57.53
2022-10-14T09:40:40.574Z,62.60
2022-10-14T09:43:16.839Z,59.00
2022-10-14T09:45:50.341Z,59.40
2022-10-14T09:48:42.822Z,62.43
2022-10-14T09:51:17.987Z,56.50
2022-10-14T09:53:48.949Z,61.80
2022-10-14T09:56:17.287Z,64.50
2022-10-14T09:58:50.958Z,62.08
2022-10-14T10:01:20.749Z,56.03
2022-10-14T10:03:48.946Z,63.38
2022-10-14T10:06:22.607Z,62.38
2022-10-14T10:09:01.259Z,63.13
2022-10-14T10:11:37.489Z,59.20
2022-10-14T10:14:25.387Z,55.03
2022-10-14T10:17:12.690Z,58.13
2022-10-14T10:19:43.096Z,55.33
2022-10-14T10:22:24.622Z,54.60
2022-10-14T10:25:12.067Z,56.55
2022-10-14T10:27:46.768Z,56.72
2022-10-14T10:30:22.433Z,60.33
2022-10-14T10:33:16.928Z,57.97
2022-10-14T10:35:58.272Z,54.40
2022-10-14T10:38:55.654Z,55.47
2022-10-14T10:41:43.766Z,58.08
2022-10-14T10:44:26.625Z,58.65
2022-10-14T10:47:17.988Z,62.33
2022-10-14T10:50:10.002Z,61.72
2022-10-14T10:53:18.522Z,68.57
2022-10-14T10:56:07.457Z,63.28
2022-10-14T10:58:58.919Z,70.43
2022-10-14T11:01:38.668Z,68.47
2022-10-14T11:04:33.265Z,72.53
2022-10-14T11:07:26.963Z,70.85
2022-10-14T11:10:42.597Z,68.40
2022-10-14T11:13:51.274Z,70.75
2022-10-14T11:16:33.839Z,70.03
2022-10-14T11:19:14.716Z,74.07
2022-10-14T11:21:56.258Z,78.32
2022-10-14T11:24:54.409Z,79.55
2022-10-14T11:27:31.892Z,73.30
2022-10-14T11:30:14.239Z,75.55
2022-10-14T11:32:52.388Z,77.88
2022-10-14T11:38:07.246Z,73.68
2022-10-14T11:40:49.862Z,71.57
2022-10-14T11:43:36.286Z,76.93
2022-10-14T11:46:16.181Z,79.45
2022-10-14T11:48:48.058Z,78.07
2022-10-14T11:51:57.928Z,70.97
2022-10-14T11:54:47.345Z,73.90
2022-10-14T11:57:35.023Z,75.03
2022-10-14T12:00:39.037Z,69.07
2022-10-14T12:03:43.838Z,69.03
2022-10-14T12:06:12.657Z,73.45
2022-10-14T12:09:19.130Z,72.40
2022-10-14T12:12:17.735Z,73.13
2022-10-14T12:14:51.415Z,74.35
2022-10-14T12:17:27.595Z,79.22
2022-10-14T12:19:55.117Z,76.35
2022-10-14T12:22:25.824Z,79.38
2022-10-14T12:24:55.285Z,77.07
2022-10-14T12:27:24.425Z,80.28
2022-10-14T12:29:52.634Z,79.18
2022-10-14T12:32:28.180Z,79.85
2022-10-14T12:34:56.898Z,82.22
2022-10-14T12:37:31.716Z,81.47
2022-10-14T12:40:07.417Z,75.38
2022-10-14T12:42:51.138Z,82.85
2022-10-14T12:45:21.727Z,77.30
2022-10-14T12:48:02.435Z,79.32
2022-10-14T12:50:34.556Z,83.13
2022-10-14T12:53:35.342Z,82.65
2022-10-14T12:56:04.846Z,78.00
2022-10-14T12:58:42.593Z,81.10
2022-10-14T13:01:23.473Z,81.18
2022-10-14T13:07:44.016Z,78.53
2022-10-14T13:10:35.653Z,83.75
2022-10-14T13:13:47.899Z,84.40
2022-10-14T13:16:25.888Z,81.57
2022-10-14T13:18:53.646Z,80.20
2022-10-14T13:21:35.283Z,82.60
2022-10-14T13:24:06.482Z,87.43
2022-10-14T13:26:38.847Z,82.15
2022-10-14T13:29:17.429Z,80.43
2022-10-14T13:32:10.055Z,86.38
2022-10-14T13:34:53.939Z,83.82
2022-10-14T13:37:35.803Z,82.80
2022-10-14T13:42:51.781Z,80.65
2022-10-14T13:45:22.242Z,80.05
2022-10-14T13:47:49.834Z,82.47
2022-10-14T13:50:23.023Z,82.95
2022-10-14T13:53:00.786Z,83.25
2022-10-14T13:55:27.455Z,84.53
2022-10-14T13:58:13.007Z,81.72
2022-10-14T14:00:50.149Z,82.82
2022-10-14T14:03:28.646Z,83.88
2022-10-14T14:05:56.763Z,83.45
2022-10-14T14:08:41.928Z,83.32
2022-10-14T14:11:17.728Z,81.28
2022-10-14T14:14:00.424Z,82.75
2022-10-14T14:16:31.881Z,79.88
2022-10-14T14:19:13.844Z,83.43
2022-10-14T14:21:40.403Z,81.63
2022-10-14T14:24:16.583Z,82.45
2022-10-14T14:26:42.943Z,80.72
2022-10-14T14:29:21.272Z,82.75
2022-10-14T14:32:06.128Z,83.55
2022-10-14T14:34:35.658Z,86.28
2022-10-14T14:37:23.499Z,89.07
2022-10-14T14:40:03.306Z,85.18
2022-10-14T14:42:40.034Z,83.90
2022-10-14T14:45:22.546Z,86.85
2022-10-14T14:47:51.372Z,81.72
2022-10-14T14:50:31.208Z,81.95
2022-10-14T14:53:03.267Z,85.38
2022-10-14T14:55:47.759Z,86.22
2022-10-14T14:58:26.366Z,83.97
2022-10-14T15:00:54.724Z,82.82
2022-10-14T15:03:24.891Z,80.70
2022-10-14T15:05:59.731Z,84.53
2022-10-14T15:08:29.756Z,83.03
2022-10-14T15:10:57.854Z,82.57
2022-10-14T15:13:38.635Z,81.90
2022-10-14T15:16:05.903Z,81.35
2022-10-14T15:18:32.565Z,78.55
2022-10-14T15:21:07.192Z,75.22
2022-10-14T15:23:42.821Z,76.53
2022-10-14T15:26:30.232Z,76.07
2022-10-14T15:29:26.119Z,73.53
2022-10-14T15:32:01.301Z,70.57
2022-10-14T15:34:28.128Z,75.07
2022-10-14T15:36:54.709Z,78.03
2022-10-14T15:39:21.861Z,74.32
2022-10-14T15:41:48.884Z,78.18
2022-10-14T15:44:15.478Z,76.93
2022-10-14T15:47:02.501Z,78.45
2022-10-14T15:49:47.372Z,77.07
2022-10-14T15:52:15.880Z,76.13
2022-10-14T15:54:42.855Z,78.30
2022-10-14T15:57:12.492Z,75.68
2022-10-14T15:59:42.168Z,81.35
2022-10-14T16:02:25.117Z,77.07
2022-10-14T16:05:18.359Z,76.95
2022-10-14T16:07:38.879Z,75.43
2022-10-14T16:10:07.355Z,79.28
2022-10-14T16:12:33.831Z,79.90
2022-10-14T16:15:01.830Z,80.57
2022-10-14T16:17:28.399Z,75.55
2022-10-14T16:19:54.746Z,78.28
2022-10-14T16:22:21.071Z,79.88
2022-10-14T16:24:47.445Z,82.55
2022-10-14T16:27:13.746Z,81.85
2022-10-14T16:29:40.105Z,79.60
2022-10-14T16:32:06.638Z,80.25
2022-10-14T16:34:32.985Z,77.18
2022-10-14T16:36:59.293Z,80.45
2022-10-14T16:39:25.609Z,74.28
2022-10-14T16:41:51.954Z,78.30
2022-10-14T16:44:24.580Z,71.25
2022-10-14T16:47:11.479Z,78.10
2022-10-14T16:49:38.950Z,73.60
2022-10-14T16:52:06.516Z,69.65
2022-10-14T16:54:33.086Z,71.95
2022-10-14T16:56:59.688Z,73.93
2022-10-14T16:59:28.356Z,73.43
2022-10-14T17:01:54.954Z,72.03
2022-10-14T17:04:21.491Z,71.22
2022-10-14T17:06:47.953Z,71.28
2022-10-14T17:09:15.784Z,71.90
2022-10-14T17:11:42.416Z,70.43
2022-10-14T17:14:12.278Z,73.63
2022-10-14T17:16:38.927Z,68.65
2022-10-14T17:19:05.870Z,67.18
2022-10-14T17:21:32.418Z,69.45
2022-10-14T17:24:02.940Z,72.30
2022-10-14T17:26:31.424Z,74.00
2022-10-14T17:28:58.288Z,71.05
2022-10-14T17:31:25.562Z,63.38
2022-10-14T17:33:52.347Z,69.60
2022-10-14T17:36:33.210Z,72.50
2022-10-14T17:39:00.042Z,68.47
2022-10-14T17:41:28.609Z,67.53
2022-10-14T17:43:57.082Z,68.25
2022-10-14T17:46:24.907Z,71.75
2022-10-14T17:48:53.450Z,66.90
2022-10-14T17:51:23.414Z,69.00
2022-10-14T17:53:55.145Z,68.60
2022-10-14T17:56:21.711Z,62.67
2022-10-14T17:58:52.385Z,67.28
2022-10-14T18:01:21.560Z,65.78
2022-10-14T18:03:59.167Z,66.25
2022-10-14T18:06:30.407Z,65.78
2022-10-14T18:09:01.051Z,67.45
2022-10-14T18:11:35.407Z,68.40
2022-10-14T18:14:15.418Z,75.63
2022-10-14T18:16:43.689Z,73.60
2022-10-14T18:19:15.860Z,74.60
2022-10-14T18:21:43.273Z,69.10
2022-10-14T18:24:11.072Z,73.05
2022-10-14T18:26:39.387Z,72.22
2022-10-14T18:29:05.841Z,71.03
2022-10-14T18:31:32.499Z,71.78
2022-10-14T18:34:01.177Z,71.50
2022-10-14T18:36:30.223Z,73.95
2022-10-14T18:38:59.115Z,71.45
2022-10-14T18:41:25.873Z,72.75
2022-10-14T18:43:52.412Z,68.53
2022-10-14T18:46:21.156Z,71.82
2022-10-14T18:48:51.174Z,70.15
2022-10-14T18:51:20.989Z,69.43
2022-10-14T18:53:48.506Z,69.03
2022-10-14T18:56:17.690Z,65.57
2022-10-14T18:58:45.865Z,64.28
2022-10-14T19:01:14.489Z,65.40
2022-10-14T19:03:41.701Z,65.47
2022-10-14T19:06:10.674Z,69.55
2022-10-14T19:08:44.429Z,65.90
2022-10-14T19:11:24.396Z,64.80
2022-10-14T19:14:01.905Z,64.50
2022-10-14T19:16:30.855Z,63.95
2022-10-14T19:18:59.753Z,64.43
2022-10-14T19:21:29.868Z,71.25
2022-10-14T19:23:57.927Z,66.82
2022-10-14T19:26:26.571Z,65.70
2022-10-14T19:28:53.416Z,68.20
2022-10-14T19:31:22.611Z,67.00
2022-10-14T19:33:48.985Z,64.13
2022-10-14T19:36:17.562Z,68.50
2022-10-14T19:38:54.751Z,65.65
2022-10-14T19:41:21.197Z,61.38
2022-10-14T19:43:47.625Z,64.65
2022-10-14T19:46:14.332Z,63.08
2022-10-14T19:48:40.706Z,64.40
2022-10-14T19:51:10.944Z,62.63
2022-10-14T19:53:38.525Z,64.95
2022-10-14T19:56:09.507Z,67.80
2022-10-14T19:58:38.602Z,66.60
2022-10-14T20:01:17.996Z,70.85
2022-10-14T20:03:44.535Z,66.60
2022-10-14T20:06:12.984Z,66.63
2022-10-14T20:08:39.637Z,72.07
2022-10-14T20:11:08.387Z,67.35
2022-10-14T20:13:35.172Z,67.05
2022-10-14T20:16:02.571Z,67.45
2022-10-14T20:18:29.930Z,66.18
2022-10-14T20:20:57.303Z,68.85
2022-10-14T20:23:25.176Z,67.43
2022-10-14T20:25:51.842Z,70.65
2022-10-14T20:28:21.371Z,72.25
2022-10-14T20:30:48.223Z,66.22
2022-10-14T20:33:14.814Z,65.85
2022-10-14T20:35:41.318Z,66.43
2022-10-14T20:38:07.659Z,63.35
2022-10-14T20:40:35.425Z,65.35
2022-10-14T20:43:02.855Z,67.50
2022-10-14T20:45:29.489Z,65.43
2022-10-14T20:47:55.856Z,64.03
2022-10-14T20:50:22.760Z,63.63
2022-10-14T20:52:49.244Z,59.78
2022-10-14T20:55:15.813Z,60.92
2022-10-14T20:57:42.326Z,67.30
2022-10-14T21:00:09.910Z,62.65
2022-10-14T21:02:36.285Z,60.35
2022-10-14T21:05:02.870Z,59.80
2022-10-14T21:07:29.284Z,62.63
2022-10-14T21:09:55.761Z,64.28
2022-10-14T21:12:22.505Z,62.47
2022-10-14T21:14:49.481Z,60.50
2022-10-14T21:17:15.910Z,61.83
2022-10-14T21:19:42.227Z,63.78
2022-10-14T21:22:09.232Z,59.72
2022-10-14T21:24:36.246Z,59.17
2022-10-14T21:27:02.752Z,59.03
2022-10-14T21:29:29.161Z,57.47
2022-10-14T21:31:55.519Z,63.67
2022-10-14T21:34:24.654Z,62.92
2022-10-14T21:36:50.980Z,61.58
2022-10-14T21:39:18.134Z,61.53
2022-10-14T21:41:45.018Z,62.33
2022-10-14T21:44:15.713Z,58.85
2022-10-14T21:46:42.043Z,60.30
2022-10-14T21:49:10.134Z,63.13
2022-10-14T21:51:37.231Z,61.10
2022-10-14T21:54:04.242Z,64.65
2022-10-14T21:56:30.809Z,65.82
2022-10-14T21:58:57.326Z,63.83
2022-10-14T22:01:27.254Z,63.92
2022-10-14T22:03:57.887Z,63.13
2022-10-14T22:06:25.090Z,67.72
2022-10-14T22:08:53.701Z,66.18
2022-10-14T22:11:37.350Z,62.80
2022-10-14T22:14:05.716Z,64.30
2022-10-14T22:16:32.118Z,64.95
2022-10-14T22:19:01.133Z,69.53
2022-10-14T22:21:29.532Z,66.05
2022-10-14T22:23:56.097Z,70.63
2022-10-14T22:26:24.461Z,71.38
2022-10-14T22:29:04.478Z,68.80
2022-10-14T22:31:34.957Z,68.93
2022-10-14T22:34:04.288Z,70.63
2022-10-14T22:36:31.612Z,70.75
2022-10-14T22:38:59.552Z,70.88
2022-10-14T22:41:29.821Z,70.18
2022-10-14T22:43:59.494Z,66.15
2022-10-14T22:46:28.435Z,68.90
2022-10-14T22:48:58.684Z,72.50
2022-10-14T22:51:30.173Z,64.70
2022-10-14T22:53:56.597Z,67.13
2022-10-14T22:56:26.001Z,69.05
2022-10-14T22:58:57.312Z,62.65
2022-10-14T23:01:25.555Z,62.70
2022-10-14T23:03:51.866Z,65.15
2022-10-14T23:06:18.175Z,55.10
2022-10-14T23:08:44.708Z,60.58
2022-10-14T23:11:19.368Z,66.60
2022-10-14T23:13:45.890Z,60.47
2022-10-14T23:16:18.716Z,57.28
2022-10-14T23:18:46.078Z,58.63
2022-10-14T23:21:16.975Z,57.38
2022-10-14T23:23:44.662Z,56.15
2022-10-14T23:26:13.174Z,56.85
2022-10-14T23:28:40.336Z,59.95
2022-10-14T23:31:15.334Z,61.15
2022-10-14T23:33:42.274Z,58.28
2022-10-14T23:36:11.466Z,58.13
2022-10-14T23:38:38.310Z,59.88
2022-10-14T23:41:05.894Z,58.20
2022-10-14T23:43:32.848Z,58.45
2022-10-14T23:45:59.423Z,58.03
2022-10-14T23:48:26.158Z,58.38
2022-10-14T23:50:52.689Z,63.50
2022-10-14T23:53:19.146Z,61.13
2022-10-14T23:55:45.715Z,54.40
2022-10-14T23:58:12.631Z,57.72
